sensor_id;sensor_type;location;lat;lon;timestamp;P1;durP1;ratioP1;P2;durP2;ratioP2
8139;SDS011;4111;50.972;7.072;2023-12-20T00:01:55;14.93;;;10.87;;
8139;SDS011;4111;50.972;7.072;2023-12-20T00:04:22;11.73;;;10.53;;
8139;SDS011;4111;50.972;7.072;2023-12-20T00:06:49;12.63;;;10.67;;
8139;SDS011;4111;50.972;7.072;2023-12-20T00:09:15;12.70;;;11.40;;
8139;SDS011;4111;50.972;7.072;2023-12-20T00:11:42;13.63;;;11.77;;
8139;SDS011;4111;50.972;7.072;2023-12-20T00:14:09;13.00;;;11.67;;
8139;SDS011;4111;50.972;7.072;2023-12-20T00:16:36;12.60;;;11.27;;
8139;SDS011;4111;50.972;7.072;2023-12-20T00:19:02;14.07;;;12.37;;
8139;SDS011;4111;50.972;7.072;2023-12-20T00:21:29;14.73;;;12.60;;
8139;SDS011;4111;50.972;7.072;2023-12-20T00:23:55;17.70;;;12.17;;
8139;SDS011;4111;50.972;7.072;2023-12-20T00:26:22;14.17;;;12.60;;
8139;SDS011;4111;50.972;7.072;2023-12-20T00:28:48;14.43;;;12.93;;
8139;SDS011;4111;50.972;7.072;2023-12-20T00:31:15;13.63;;;12.13;;
8139;SDS011;4111;50.972;7.072;2023-12-20T00:33:41;14.30;;;12.17;;
8139;SDS011;4111;50.972;7.072;2023-12-20T00:36:10;13.20;;;11.80;;
8139;SDS011;4111;50.972;7.072;2023-12-20T00:38:37;13.73;;;12.07;;
8139;SDS011;4111;50.972;7.072;2023-12-20T00:41:03;13.87;;;11.50;;
8139;SDS011;4111;50.972;7.072;2023-12-20T00:43:30;10.70;;;9.70;;
8139;SDS011;4111;50.972;7.072;2023-12-20T00:45:57;10.17;;;8.77;;
8139;SDS011;4111;50.972;7.072;2023-12-20T00:48:26;12.53;;;8.67;;
8139;SDS011;4111;50.972;7.072;2023-12-20T00:51:01;10.17;;;8.87;;
8139;SDS011;4111;50.972;7.072;2023-12-20T00:53:28;10.90;;;9.03;;
8139;SDS011;4111;50.972;7.072;2023-12-20T00:55:55;9.43;;;8.23;;
8139;SDS011;4111;50.972;7.072;2023-12-20T00:58:21;10.00;;;8.90;;
8139;SDS011;4111;50.972;7.072;2023-12-20T01:00:48;8.83;;;7.70;;
8139;SDS011;4111;50.972;7.072;2023-12-20T01:03:14;11.70;;;8.33;;
8139;SDS011;4111;50.972;7.072;2023-12-20T01:05:41;10.13;;;8.47;;
8139;SDS011;4111;50.972;7.072;2023-12-20T01:08:08;9.77;;;7.70;;
8139;SDS011;4111;50.972;7.072;2023-12-20T01:10:34;13.73;;;8.37;;
8139;SDS011;4111;50.972;7.072;2023-12-20T01:13:01;9.43;;;8.43;;
8139;SDS011;4111;50.972;7.072;2023-12-20T01:15:27;10.07;;;8.23;;
8139;SDS011;4111;50.972;7.072;2023-12-20T01:17:53;11.63;;;8.70;;
8139;SDS011;4111;50.972;7.072;2023-12-20T01:20:20;9.60;;;8.30;;
8139;SDS011;4111;50.972;7.072;2023-12-20T01:22:47;10.47;;;8.40;;
8139;SDS011;4111;50.972;7.072;2023-12-20T01:25:13;11.00;;;8.20;;
8139;SDS011;4111;50.972;7.072;2023-12-20T01:27:40;9.50;;;7.13;;
8139;SDS011;4111;50.972;7.072;2023-12-20T01:30:07;8.90;;;7.67;;
8139;SDS011;4111;50.972;7.072;2023-12-20T01:32:33;10.50;;;6.60;;
8139;SDS011;4111;50.972;7.072;2023-12-20T01:35:00;9.30;;;6.07;;
8139;SDS011;4111;50.972;7.072;2023-12-20T01:37:28;7.53;;;6.27;;
8139;SDS011;4111;50.972;7.072;2023-12-20T01:39:55;7.67;;;5.67;;
8139;SDS011;4111;50.972;7.072;2023-12-20T01:42:22;8.57;;;5.13;;
8139;SDS011;4111;50.972;7.072;2023-12-20T01:44:49;10.40;;;7.00;;
8139;SDS011;4111;50.972;7.072;2023-12-20T01:47:16;8.60;;;6.60;;
8139;SDS011;4111;50.972;7.072;2023-12-20T01:49:42;9.40;;;6.97;;
8139;SDS011;4111;50.972;7.072;2023-12-20T01:52:10;8.27;;;6.33;;
8139;SDS011;4111;50.972;7.072;2023-12-20T01:54:38;15.07;;;7.67;;
8139;SDS011;4111;50.972;7.072;2023-12-20T01:57:06;9.23;;;7.00;;
8139;SDS011;4111;50.972;7.072;2023-12-20T01:59:34;11.50;;;7.83;;
8139;SDS011;4111;50.972;7.072;2023-12-20T02:02:02;12.13;;;8.10;;
8139;SDS011;4111;50.972;7.072;2023-12-20T02:04:30;13.77;;;8.67;;
8139;SDS011;4111;50.972;7.072;2023-12-20T02:06:56;13.67;;;8.30;;
8139;SDS011;4111;50.972;7.072;2023-12-20T02:09:25;11.20;;;8.53;;
8139;SDS011;4111;50.972;7.072;2023-12-20T02:11:52;12.13;;;8.43;;
8139;SDS011;4111;50.972;7.072;2023-12-20T02:14:19;14.00;;;8.73;;
8139;SDS011;4111;50.972;7.072;2023-12-20T02:16:45;14.60;;;9.40;;
8139;SDS011;4111;50.972;7.072;2023-12-20T02:19:15;12.80;;;8.73;;
8139;SDS011;4111;50.972;7.072;2023-12-20T02:21:42;16.20;;;8.10;;
8139;SDS011;4111;50.972;7.072;2023-12-20T02:24:08;10.90;;;7.53;;
8139;SDS011;4111;50.972;7.072;2023-12-20T02:26:35;14.10;;;8.07;;
8139;SDS011;4111;50.972;7.072;2023-12-20T02:29:01;10.43;;;7.70;;
8139;SDS011;4111;50.972;7.072;2023-12-20T02:31:28;10.93;;;7.10;;
8139;SDS011;4111;50.972;7.072;2023-12-20T02:33:55;10.90;;;7.20;;
8139;SDS011;4111;50.972;7.072;2023-12-20T02:36:21;11.63;;;7.40;;
8139;SDS011;4111;50.972;7.072;2023-12-20T02:38:48;10.20;;;6.37;;
8139;SDS011;4111;50.972;7.072;2023-12-20T02:41:14;11.57;;;7.10;;
8139;SDS011;4111;50.972;7.072;2023-12-20T02:43:43;11.63;;;7.10;;
8139;SDS011;4111;50.972;7.072;2023-12-20T02:46:09;14.93;;;7.20;;
8139;SDS011;4111;50.972;7.072;2023-12-20T02:48:36;11.03;;;7.17;;
8139;SDS011;4111;50.972;7.072;2023-12-20T02:51:02;12.63;;;6.77;;
8139;SDS011;4111;50.972;7.072;2023-12-20T02:53:29;10.80;;;6.73;;
8139;SDS011;4111;50.972;7.072;2023-12-20T02:55:55;15.53;;;6.80;;
8139;SDS011;4111;50.972;7.072;2023-12-20T02:58:22;14.17;;;6.90;;
8139;SDS011;4111;50.972;7.072;2023-12-20T03:00:48;12.40;;;6.10;;
8139;SDS011;4111;50.972;7.072;2023-12-20T03:03:15;13.07;;;6.10;;
8139;SDS011;4111;50.972;7.072;2023-12-20T03:05:42;11.37;;;5.53;;
8139;SDS011;4111;50.972;7.072;2023-12-20T03:08:08;16.27;;;5.27;;
8139;SDS011;4111;50.972;7.072;2023-12-20T03:10:36;16.10;;;5.17;;
8139;SDS011;4111;50.972;7.072;2023-12-20T03:13:03;12.53;;;5.40;;
8139;SDS011;4111;50.972;7.072;2023-12-20T03:15:30;14.13;;;4.93;;
8139;SDS011;4111;50.972;7.072;2023-12-20T03:17:57;13.47;;;4.20;;
8139;SDS011;4111;50.972;7.072;2023-12-20T03:20:25;7.37;;;4.50;;
8139;SDS011;4111;50.972;7.072;2023-12-20T03:22:54;9.80;;;3.80;;
8139;SDS011;4111;50.972;7.072;2023-12-20T03:25:21;19.73;;;4.17;;
8139;SDS011;4111;50.972;7.072;2023-12-20T03:27:47;13.23;;;3.73;;
8139;SDS011;4111;50.972;7.072;2023-12-20T03:30:14;16.87;;;4.23;;
8139;SDS011;4111;50.972;7.072;2023-12-20T03:32:41;9.87;;;3.37;;
8139;SDS011;4111;50.972;7.072;2023-12-20T03:35:08;15.93;;;3.57;;
8139;SDS011;4111;50.972;7.072;2023-12-20T03:37:34;14.37;;;3.10;;
8139;SDS011;4111;50.972;7.072;2023-12-20T03:40:01;14.13;;;3.77;;
8139;SDS011;4111;50.972;7.072;2023-12-20T03:42:29;9.10;;;3.27;;
8139;SDS011;4111;50.972;7.072;2023-12-20T03:44:55;12.43;;;3.33;;
8139;SDS011;4111;50.972;7.072;2023-12-20T03:47:21;15.03;;;3.00;;
8139;SDS011;4111;50.972;7.072;2023-12-20T03:49:48;11.60;;;3.00;;
8139;SDS011;4111;50.972;7.072;2023-12-20T03:52:15;11.87;;;3.03;;
8139;SDS011;4111;50.972;7.072;2023-12-20T03:54:41;12.70;;;3.77;;
8139;SDS011;4111;50.972;7.072;2023-12-20T03:57:09;11.37;;;3.30;;
8139;SDS011;4111;50.972;7.072;2023-12-20T03:59:38;15.30;;;3.60;;
8139;SDS011;4111;50.972;7.072;2023-12-20T04:02:05;12.80;;;3.40;;
8139;SDS011;4111;50.972;7.072;2023-12-20T04:04:31;11.17;;;2.67;;
8139;SDS011;4111;50.972;7.072;2023-12-20T04:06:58;17.67;;;4.07;;
8139;SDS011;4111;50.972;7.072;2023-12-20T04:09:25;11.93;;;4.00;;
8139;SDS011;4111;50.972;7.072;2023-12-20T04:11:51;9.90;;;2.90;;
8139;SDS011;4111;50.972;7.072;2023-12-20T04:14:18;11.33;;;3.37;;
8139;SDS011;4111;50.972;7.072;2023-12-20T04:16:44;18.30;;;3.83;;
8139;SDS011;4111;50.972;7.072;2023-12-20T04:19:13;15.10;;;3.43;;
8139;SDS011;4111;50.972;7.072;2023-12-20T04:21:39;11.97;;;2.97;;
8139;SDS011;4111;50.972;7.072;2023-12-20T04:24:06;12.70;;;3.33;;
8139;SDS011;4111;50.972;7.072;2023-12-20T04:26:33;8.00;;;3.17;;
8139;SDS011;4111;50.972;7.072;2023-12-20T04:28:59;14.13;;;3.60;;
8139;SDS011;4111;50.972;7.072;2023-12-20T04:31:26;17.13;;;3.23;;
8139;SDS011;4111;50.972;7.072;2023-12-20T04:33:52;12.70;;;3.50;;
8139;SDS011;4111;50.972;7.072;2023-12-20T04:36:19;12.93;;;3.63;;
8139;SDS011;4111;50.972;7.072;2023-12-20T04:38:45;17.27;;;3.87;;
8139;SDS011;4111;50.972;7.072;2023-12-20T04:41:12;8.57;;;3.17;;
8139;SDS011;4111;50.972;7.072;2023-12-20T04:43:41;15.13;;;3.47;;
8139;SDS011;4111;50.972;7.072;2023-12-20T04:46:08;10.43;;;3.67;;
8139;SDS011;4111;50.972;7.072;2023-12-20T04:48:34;9.37;;;3.23;;
8139;SDS011;4111;50.972;7.072;2023-12-20T04:51:01;15.83;;;3.83;;
8139;SDS011;4111;50.972;7.072;2023-12-20T04:53:27;15.17;;;3.67;;
8139;SDS011;4111;50.972;7.072;2023-12-20T04:55:54;19.27;;;4.47;;
8139;SDS011;4111;50.972;7.072;2023-12-20T04:58:20;11.40;;;3.80;;
8139;SDS011;4111;50.972;7.072;2023-12-20T05:00:47;11.57;;;4.00;;
8139;SDS011;4111;50.972;7.072;2023-12-20T05:03:13;13.27;;;4.30;;
8139;SDS011;4111;50.972;7.072;2023-12-20T05:05:41;18.10;;;4.50;;
8139;SDS011;4111;50.972;7.072;2023-12-20T05:08:08;18.83;;;4.17;;
8139;SDS011;4111;50.972;7.072;2023-12-20T05:10:34;13.23;;;3.87;;
8139;SDS011;4111;50.972;7.072;2023-12-20T05:13:02;14.73;;;4.30;;
8139;SDS011;4111;50.972;7.072;2023-12-20T05:15:29;13.23;;;3.60;;
8139;SDS011;4111;50.972;7.072;2023-12-20T05:17:56;12.77;;;3.73;;
8139;SDS011;4111;50.972;7.072;2023-12-20T05:20:22;14.43;;;4.43;;
8139;SDS011;4111;50.972;7.072;2023-12-20T05:22:49;14.17;;;3.60;;
8139;SDS011;4111;50.972;7.072;2023-12-20T05:25:16;14.20;;;3.30;;
8139;SDS011;4111;50.972;7.072;2023-12-20T05:27:43;11.17;;;3.87;;
8139;SDS011;4111;50.972;7.072;2023-12-20T05:30:10;15.40;;;3.60;;
8139;SDS011;4111;50.972;7.072;2023-12-20T05:32:37;14.03;;;4.00;;
8139;SDS011;4111;50.972;7.072;2023-12-20T05:35:03;7.90;;;3.13;;
8139;SDS011;4111;50.972;7.072;2023-12-20T05:37:30;9.93;;;3.47;;
8139;SDS011;4111;50.972;7.072;2023-12-20T05:39:56;14.17;;;4.57;;
8139;SDS011;4111;50.972;7.072;2023-12-20T05:42:23;9.97;;;3.70;;
8139;SDS011;4111;50.972;7.072;2023-12-20T05:44:49;10.50;;;3.57;;
8139;SDS011;4111;50.972;7.072;2023-12-20T05:47:19;11.90;;;3.90;;
8139;SDS011;4111;50.972;7.072;2023-12-20T05:49:46;10.57;;;3.27;;
8139;SDS011;4111;50.972;7.072;2023-12-20T05:52:12;12.97;;;3.97;;
8139;SDS011;4111;50.972;7.072;2023-12-20T05:54:39;8.57;;;3.80;;
8139;SDS011;4111;50.972;7.072;2023-12-20T05:57:05;14.37;;;3.70;;
8139;SDS011;4111;50.972;7.072;2023-12-20T05:59:32;12.97;;;3.33;;
8139;SDS011;4111;50.972;7.072;2023-12-20T06:01:58;13.17;;;4.13;;
8139;SDS011;4111;50.972;7.072;2023-12-20T06:04:25;17.50;;;3.97;;
8139;SDS011;4111;50.972;7.072;2023-12-20T06:06:51;14.10;;;4.17;;
8139;SDS011;4111;50.972;7.072;2023-12-20T06:09:18;11.27;;;3.73;;
8139;SDS011;4111;50.972;7.072;2023-12-20T06:11:45;21.23;;;4.20;;
8139;SDS011;4111;50.972;7.072;2023-12-20T06:14:12;17.77;;;3.77;;
8139;SDS011;4111;50.972;7.072;2023-12-20T06:16:38;15.83;;;4.10;;
8139;SDS011;4111;50.972;7.072;2023-12-20T06:19:05;12.67;;;3.73;;
8139;SDS011;4111;50.972;7.072;2023-12-20T06:21:32;10.93;;;3.37;;
8139;SDS011;4111;50.972;7.072;2023-12-20T06:23:58;9.67;;;3.20;;
8139;SDS011;4111;50.972;7.072;2023-12-20T06:26:26;10.77;;;3.40;;
8139;SDS011;4111;50.972;7.072;2023-12-20T06:28:52;16.93;;;3.47;;
8139;SDS011;4111;50.972;7.072;2023-12-20T06:31:19;17.70;;;3.83;;
8139;SDS011;4111;50.972;7.072;2023-12-20T06:33:45;14.23;;;3.83;;
8139;SDS011;4111;50.972;7.072;2023-12-20T06:36:12;14.33;;;4.00;;
8139;SDS011;4111;50.972;7.072;2023-12-20T06:38:39;20.07;;;4.50;;
8139;SDS011;4111;50.972;7.072;2023-12-20T06:41:08;19.13;;;3.90;;
8139;SDS011;4111;50.972;7.072;2023-12-20T06:43:34;12.60;;;3.77;;
8139;SDS011;4111;50.972;7.072;2023-12-20T06:46:14;12.27;;;3.90;;
8139;SDS011;4111;50.972;7.072;2023-12-20T06:48:41;14.70;;;4.50;;
8139;SDS011;4111;50.972;7.072;2023-12-20T06:51:11;15.40;;;4.10;;
8139;SDS011;4111;50.972;7.072;2023-12-20T06:53:40;11.70;;;3.43;;
8139;SDS011;4111;50.972;7.072;2023-12-20T06:56:06;17.87;;;4.53;;
8139;SDS011;4111;50.972;7.072;2023-12-20T06:58:33;15.23;;;4.20;;
8139;SDS011;4111;50.972;7.072;2023-12-20T07:01:00;15.60;;;4.93;;
8139;SDS011;4111;50.972;7.072;2023-12-20T07:03:27;10.97;;;4.43;;
8139;SDS011;4111;50.972;7.072;2023-12-20T07:05:53;11.63;;;4.37;;
8139;SDS011;4111;50.972;7.072;2023-12-20T07:08:20;15.90;;;4.00;;
8139;SDS011;4111;50.972;7.072;2023-12-20T07:10:46;17.27;;;4.50;;
8139;SDS011;4111;50.972;7.072;2023-12-20T07:13:12;24.87;;;5.10;;
8139;SDS011;4111;50.972;7.072;2023-12-20T07:15:39;16.10;;;3.87;;
8139;SDS011;4111;50.972;7.072;2023-12-20T07:18:06;16.20;;;3.70;;
8139;SDS011;4111;50.972;7.072;2023-12-20T07:20:33;17.30;;;4.20;;
8139;SDS011;4111;50.972;7.072;2023-12-20T07:23:00;14.73;;;3.90;;
8139;SDS011;4111;50.972;7.072;2023-12-20T07:25:26;14.00;;;3.73;;
8139;SDS011;4111;50.972;7.072;2023-12-20T07:27:53;13.67;;;3.87;;
8139;SDS011;4111;50.972;7.072;2023-12-20T07:30:20;14.77;;;3.37;;
8139;SDS011;4111;50.972;7.072;2023-12-20T07:32:46;8.70;;;3.53;;
8139;SDS011;4111;50.972;7.072;2023-12-20T07:35:14;12.47;;;3.83;;
8139;SDS011;4111;50.972;7.072;2023-12-20T07:37:41;16.40;;;4.10;;
8139;SDS011;4111;50.972;7.072;2023-12-20T07:40:08;17.97;;;4.37;;
8139;SDS011;4111;50.972;7.072;2023-12-20T07:42:35;17.53;;;4.03;;
8139;SDS011;4111;50.972;7.072;2023-12-20T07:45:02;12.60;;;3.70;;
8139;SDS011;4111;50.972;7.072;2023-12-20T07:47:29;16.73;;;4.60;;
8139;SDS011;4111;50.972;7.072;2023-12-20T07:49:55;16.00;;;4.43;;
8139;SDS011;4111;50.972;7.072;2023-12-20T07:52:22;15.27;;;3.83;;
8139;SDS011;4111;50.972;7.072;2023-12-20T07:54:49;18.67;;;4.77;;
8139;SDS011;4111;50.972;7.072;2023-12-20T07:57:15;13.97;;;4.07;;
8139;SDS011;4111;50.972;7.072;2023-12-20T07:59:42;12.93;;;3.70;;
8139;SDS011;4111;50.972;7.072;2023-12-20T08:02:10;15.03;;;4.70;;
8139;SDS011;4111;50.972;7.072;2023-12-20T08:04:36;15.60;;;4.50;;
8139;SDS011;4111;50.972;7.072;2023-12-20T08:07:03;12.73;;;3.70;;
8139;SDS011;4111;50.972;7.072;2023-12-20T08:09:30;15.37;;;4.50;;
8139;SDS011;4111;50.972;7.072;2023-12-20T08:11:58;16.83;;;4.53;;
8139;SDS011;4111;50.972;7.072;2023-12-20T08:14:25;12.00;;;4.33;;
8139;SDS011;4111;50.972;7.072;2023-12-20T08:16:52;14.20;;;4.47;;
8139;SDS011;4111;50.972;7.072;2023-12-20T08:19:18;15.17;;;4.20;;
8139;SDS011;4111;50.972;7.072;2023-12-20T08:21:45;19.70;;;4.63;;
8139;SDS011;4111;50.972;7.072;2023-12-20T08:24:11;13.97;;;4.00;;
8139;SDS011;4111;50.972;7.072;2023-12-20T08:26:38;13.27;;;4.13;;
8139;SDS011;4111;50.972;7.072;2023-12-20T08:29:04;14.17;;;4.53;;
8139;SDS011;4111;50.972;7.072;2023-12-20T08:31:31;9.30;;;3.73;;
8139;SDS011;4111;50.972;7.072;2023-12-20T08:33:57;16.73;;;4.07;;
8139;SDS011;4111;50.972;7.072;2023-12-20T08:36:24;14.20;;;3.30;;
8139;SDS011;4111;50.972;7.072;2023-12-20T08:38:51;14.73;;;4.47;;
8139;SDS011;4111;50.972;7.072;2023-12-20T08:41:17;10.47;;;3.90;;
8139;SDS011;4111;50.972;7.072;2023-12-20T08:43:44;14.77;;;4.17;;
8139;SDS011;4111;50.972;7.072;2023-12-20T08:46:11;12.20;;;4.00;;
8139;SDS011;4111;50.972;7.072;2023-12-20T08:48:38;12.80;;;3.67;;
8139;SDS011;4111;50.972;7.072;2023-12-20T08:51:05;10.17;;;3.73;;
8139;SDS011;4111;50.972;7.072;2023-12-20T08:53:35;10.80;;;3.60;;
8139;SDS011;4111;50.972;7.072;2023-12-20T08:56:02;19.20;;;4.27;;
8139;SDS011;4111;50.972;7.072;2023-12-20T08:58:28;16.67;;;4.20;;
8139;SDS011;4111;50.972;7.072;2023-12-20T09:00:55;15.03;;;4.13;;
8139;SDS011;4111;50.972;7.072;2023-12-20T09:03:22;10.63;;;3.53;;
8139;SDS011;4111;50.972;7.072;2023-12-20T09:05:49;13.50;;;4.07;;
8139;SDS011;4111;50.972;7.072;2023-12-20T09:08:15;16.13;;;3.97;;
8139;SDS011;4111;50.972;7.072;2023-12-20T09:10:42;11.47;;;3.70;;
8139;SDS011;4111;50.972;7.072;2023-12-20T09:13:08;15.50;;;4.10;;
8139;SDS011;4111;50.972;7.072;2023-12-20T09:15:35;17.50;;;4.10;;
8139;SDS011;4111;50.972;7.072;2023-12-20T09:18:02;14.47;;;3.53;;
8139;SDS011;4111;50.972;7.072;2023-12-20T09:20:30;12.63;;;3.83;;
8139;SDS011;4111;50.972;7.072;2023-12-20T09:22:58;11.23;;;3.90;;
8139;SDS011;4111;50.972;7.072;2023-12-20T09:25:25;20.67;;;4.53;;
8139;SDS011;4111;50.972;7.072;2023-12-20T09:27:53;8.83;;;3.43;;
8139;SDS011;4111;50.972;7.072;2023-12-20T09:30:19;14.40;;;3.47;;
8139;SDS011;4111;50.972;7.072;2023-12-20T09:32:53;12.90;;;3.70;;
8139;SDS011;4111;50.972;7.072;2023-12-20T09:35:20;14.97;;;3.73;;
8139;SDS011;4111;50.972;7.072;2023-12-20T09:37:47;13.50;;;4.43;;
8139;SDS011;4111;50.972;7.072;2023-12-20T09:40:14;11.20;;;3.50;;
8139;SDS011;4111;50.972;7.072;2023-12-20T09:45:24;14.00;;;3.10;;
8139;SDS011;4111;50.972;7.072;2023-12-20T09:47:54;8.80;;;3.23;;
8139;SDS011;4111;50.972;7.072;2023-12-20T09:50:22;13.47;;;3.70;;
8139;SDS011;4111;50.972;7.072;2023-12-20T09:52:49;11.70;;;3.93;;
8139;SDS011;4111;50.972;7.072;2023-12-20T09:55:18;14.17;;;3.43;;
8139;SDS011;4111;50.972;7.072;2023-12-20T09:57:46;10.67;;;3.30;;
8139;SDS011;4111;50.972;7.072;2023-12-20T10:00:14;15.83;;;3.70;;
8139;SDS011;4111;50.972;7.072;2023-12-20T10:02:45;15.83;;;3.83;;
8139;SDS011;4111;50.972;7.072;2023-12-20T10:05:16;16.57;;;3.47;;
8139;SDS011;4111;50.972;7.072;2023-12-20T10:07:47;10.77;;;3.77;;
8139;SDS011;4111;50.972;7.072;2023-12-20T10:10:14;13.30;;;3.67;;
8139;SDS011;4111;50.972;7.072;2023-12-20T10:12:42;16.73;;;3.83;;
8139;SDS011;4111;50.972;7.072;2023-12-20T10:15:27;10.10;;;3.83;;
8139;SDS011;4111;50.972;7.072;2023-12-20T10:17:54;12.87;;;4.07;;
8139;SDS011;4111;50.972;7.072;2023-12-20T10:20:26;11.57;;;3.20;;
8139;SDS011;4111;50.972;7.072;2023-12-20T10:22:56;13.80;;;3.57;;
8139;SDS011;4111;50.972;7.072;2023-12-20T10:25:23;14.93;;;3.60;;
8139;SDS011;4111;50.972;7.072;2023-12-20T10:30:35;9.60;;;3.17;;
8139;SDS011;4111;50.972;7.072;2023-12-20T10:33:02;12.73;;;3.83;;
8139;SDS011;4111;50.972;7.072;2023-12-20T10:35:29;13.80;;;3.40;;
8139;SDS011;4111;50.972;7.072;2023-12-20T10:37:56;12.67;;;3.10;;
8139;SDS011;4111;50.972;7.072;2023-12-20T10:40:25;12.87;;;3.87;;
8139;SDS011;4111;50.972;7.072;2023-12-20T10:42:54;14.27;;;3.47;;
8139;SDS011;4111;50.972;7.072;2023-12-20T10:45:22;11.53;;;3.60;;
8139;SDS011;4111;50.972;7.072;2023-12-20T10:47:50;12.40;;;3.47;;
8139;SDS011;4111;50.972;7.072;2023-12-20T10:50:18;13.00;;;3.57;;
8139;SDS011;4111;50.972;7.072;2023-12-20T10:52:46;13.17;;;3.60;;
8139;SDS011;4111;50.972;7.072;2023-12-20T10:55:14;8.73;;;3.70;;
8139;SDS011;4111;50.972;7.072;2023-12-20T10:57:40;16.90;;;3.70;;
8139;SDS011;4111;50.972;7.072;2023-12-20T11:00:09;16.63;;;3.97;;
8139;SDS011;4111;50.972;7.072;2023-12-20T11:02:41;12.13;;;3.40;;
8139;SDS011;4111;50.972;7.072;2023-12-20T11:05:16;10.10;;;3.37;;
8139;SDS011;4111;50.972;7.072;2023-12-20T11:07:52;15.07;;;4.10;;
8139;SDS011;4111;50.972;7.072;2023-12-20T11:10:30;9.77;;;3.60;;
8139;SDS011;4111;50.972;7.072;2023-12-20T11:15:39;12.97;;;3.37;;
8139;SDS011;4111;50.972;7.072;2023-12-20T11:18:06;12.00;;;3.77;;
8139;SDS011;4111;50.972;7.072;2023-12-20T11:20:39;13.80;;;3.93;;
8139;SDS011;4111;50.972;7.072;2023-12-20T11:23:07;13.10;;;3.37;;
8139;SDS011;4111;50.972;7.072;2023-12-20T11:28:26;17.57;;;3.70;;
8139;SDS011;4111;50.972;7.072;2023-12-20T11:30:53;13.20;;;3.27;;
8139;SDS011;4111;50.972;7.072;2023-12-20T11:33:32;10.80;;;3.63;;
8139;SDS011;4111;50.972;7.072;2023-12-20T11:36:02;14.40;;;3.47;;
8139;SDS011;4111;50.972;7.072;2023-12-20T11:38:38;12.20;;;3.33;;
8139;SDS011;4111;50.972;7.072;2023-12-20T11:41:15;10.43;;;3.40;;
8139;SDS011;4111;50.972;7.072;2023-12-20T11:43:41;12.57;;;3.63;;
8139;SDS011;4111;50.972;7.072;2023-12-20T11:46:08;9.53;;;3.30;;
8139;SDS011;4111;50.972;7.072;2023-12-20T11:48:37;16.90;;;3.30;;
8139;SDS011;4111;50.972;7.072;2023-12-20T11:51:14;10.63;;;2.90;;
8139;SDS011;4111;50.972;7.072;2023-12-20T11:53:41;8.03;;;2.97;;
8139;SDS011;4111;50.972;7.072;2023-12-20T11:56:10;11.20;;;3.57;;
8139;SDS011;4111;50.972;7.072;2023-12-20T11:58:38;10.37;;;2.97;;
8139;SDS011;4111;50.972;7.072;2023-12-20T12:01:05;8.37;;;2.93;;
8139;SDS011;4111;50.972;7.072;2023-12-20T12:03:34;9.90;;;3.37;;
8139;SDS011;4111;50.972;7.072;2023-12-20T12:06:01;8.90;;;3.07;;
8139;SDS011;4111;50.972;7.072;2023-12-20T12:08:30;17.50;;;4.20;;
8139;SDS011;4111;50.972;7.072;2023-12-20T12:10:57;9.70;;;3.13;;
8139;SDS011;4111;50.972;7.072;2023-12-20T12:13:24;13.67;;;3.60;;
8139;SDS011;4111;50.972;7.072;2023-12-20T12:15:53;10.67;;;3.10;;
8139;SDS011;4111;50.972;7.072;2023-12-20T12:18:20;13.57;;;3.60;;
8139;SDS011;4111;50.972;7.072;2023-12-20T12:20:47;11.53;;;3.50;;
8139;SDS011;4111;50.972;7.072;2023-12-20T12:23:13;11.30;;;2.87;;
8139;SDS011;4111;50.972;7.072;2023-12-20T12:25:40;10.67;;;3.17;;
8139;SDS011;4111;50.972;7.072;2023-12-20T12:28:09;15.77;;;3.90;;
8139;SDS011;4111;50.972;7.072;2023-12-20T12:30:36;11.30;;;4.00;;
8139;SDS011;4111;50.972;7.072;2023-12-20T12:33:11;10.67;;;3.50;;
8139;SDS011;4111;50.972;7.072;2023-12-20T12:35:38;11.93;;;3.83;;
8139;SDS011;4111;50.972;7.072;2023-12-20T12:38:06;12.30;;;3.80;;
8139;SDS011;4111;50.972;7.072;2023-12-20T12:40:34;14.87;;;3.03;;
8139;SDS011;4111;50.972;7.072;2023-12-20T12:43:01;11.37;;;3.43;;
8139;SDS011;4111;50.972;7.072;2023-12-20T12:45:28;9.77;;;3.20;;
8139;SDS011;4111;50.972;7.072;2023-12-20T12:47:55;6.97;;;3.00;;
8139;SDS011;4111;50.972;7.072;2023-12-20T12:50:21;12.33;;;3.30;;
8139;SDS011;4111;50.972;7.072;2023-12-20T12:52:48;9.83;;;3.80;;
8139;SDS011;4111;50.972;7.072;2023-12-20T12:55:14;14.50;;;3.87;;
8139;SDS011;4111;50.972;7.072;2023-12-20T12:57:41;10.63;;;3.67;;
8139;SDS011;4111;50.972;7.072;2023-12-20T13:00:08;13.63;;;3.63;;
8139;SDS011;4111;50.972;7.072;2023-12-20T13:02:35;11.70;;;3.83;;
8139;SDS011;4111;50.972;7.072;2023-12-20T13:05:04;12.17;;;3.67;;
8139;SDS011;4111;50.972;7.072;2023-12-20T13:07:31;11.13;;;3.37;;
8139;SDS011;4111;50.972;7.072;2023-12-20T13:09:58;14.27;;;3.93;;
8139;SDS011;4111;50.972;7.072;2023-12-20T13:12:25;8.63;;;3.90;;
8139;SDS011;4111;50.972;7.072;2023-12-20T13:14:52;13.63;;;4.00;;
8139;SDS011;4111;50.972;7.072;2023-12-20T13:17:19;14.73;;;3.97;;
8139;SDS011;4111;50.972;7.072;2023-12-20T13:19:46;15.07;;;3.93;;
8139;SDS011;4111;50.972;7.072;2023-12-20T13:22:13;12.60;;;3.43;;
8139;SDS011;4111;50.972;7.072;2023-12-20T13:24:39;16.57;;;3.77;;
8139;SDS011;4111;50.972;7.072;2023-12-20T13:27:06;8.67;;;3.00;;
8139;SDS011;4111;50.972;7.072;2023-12-20T13:29:33;11.03;;;4.03;;
8139;SDS011;4111;50.972;7.072;2023-12-20T13:32:01;8.67;;;3.03;;
8139;SDS011;4111;50.972;7.072;2023-12-20T13:34:29;11.67;;;3.60;;
8139;SDS011;4111;50.972;7.072;2023-12-20T13:36:56;11.17;;;3.93;;
8139;SDS011;4111;50.972;7.072;2023-12-20T13:39:23;16.00;;;3.93;;
8139;SDS011;4111;50.972;7.072;2023-12-20T13:41:49;16.90;;;3.83;;
8139;SDS011;4111;50.972;7.072;2023-12-20T13:44:15;10.00;;;3.33;;
8139;SDS011;4111;50.972;7.072;2023-12-20T13:46:42;12.33;;;3.67;;
8139;SDS011;4111;50.972;7.072;2023-12-20T13:49:08;10.30;;;3.50;;
8139;SDS011;4111;50.972;7.072;2023-12-20T13:51:35;8.60;;;3.50;;
8139;SDS011;4111;50.972;7.072;2023-12-20T13:54:01;13.00;;;4.13;;
8139;SDS011;4111;50.972;7.072;2023-12-20T13:56:28;14.37;;;3.43;;
8139;SDS011;4111;50.972;7.072;2023-12-20T13:58:54;14.33;;;3.53;;
8139;SDS011;4111;50.972;7.072;2023-12-20T14:01:21;11.33;;;3.77;;
8139;SDS011;4111;50.972;7.072;2023-12-20T14:03:49;8.00;;;2.90;;
8139;SDS011;4111;50.972;7.072;2023-12-20T14:06:16;8.43;;;3.10;;
8139;SDS011;4111;50.972;7.072;2023-12-20T14:08:44;12.40;;;3.97;;
8139;SDS011;4111;50.972;7.072;2023-12-20T14:11:10;9.00;;;3.00;;
8139;SDS011;4111;50.972;7.072;2023-12-20T14:13:37;10.60;;;3.23;;
8139;SDS011;4111;50.972;7.072;2023-12-20T14:16:03;12.27;;;3.40;;
8139;SDS011;4111;50.972;7.072;2023-12-20T14:18:30;9.23;;;3.67;;
8139;SDS011;4111;50.972;7.072;2023-12-20T14:20:57;8.23;;;2.93;;
8139;SDS011;4111;50.972;7.072;2023-12-20T14:23:23;10.40;;;3.30;;
8139;SDS011;4111;50.972;7.072;2023-12-20T14:25:50;14.53;;;3.47;;
8139;SDS011;4111;50.972;7.072;2023-12-20T14:28:18;9.27;;;3.10;;
8139;SDS011;4111;50.972;7.072;2023-12-20T14:30:45;7.57;;;3.20;;
8139;SDS011;4111;50.972;7.072;2023-12-20T14:33:12;10.93;;;3.70;;
8139;SDS011;4111;50.972;7.072;2023-12-20T14:35:38;6.10;;;2.97;;
8139;SDS011;4111;50.972;7.072;2023-12-20T14:38:05;8.33;;;3.93;;
8139;SDS011;4111;50.972;7.072;2023-12-20T14:40:32;10.30;;;3.37;;
8139;SDS011;4111;50.972;7.072;2023-12-20T14:42:58;7.53;;;2.83;;
8139;SDS011;4111;50.972;7.072;2023-12-20T14:45:26;13.83;;;3.50;;
8139;SDS011;4111;50.972;7.072;2023-12-20T14:47:53;9.33;;;3.27;;
8139;SDS011;4111;50.972;7.072;2023-12-20T14:50:20;11.23;;;3.80;;
8139;SDS011;4111;50.972;7.072;2023-12-20T14:52:46;11.70;;;3.40;;
8139;SDS011;4111;50.972;7.072;2023-12-20T14:55:13;7.67;;;3.17;;
8139;SDS011;4111;50.972;7.072;2023-12-20T14:57:40;6.80;;;3.17;;
8139;SDS011;4111;50.972;7.072;2023-12-20T15:00:07;13.50;;;3.33;;
8139;SDS011;4111;50.972;7.072;2023-12-20T15:02:33;8.37;;;3.10;;
8139;SDS011;4111;50.972;7.072;2023-12-20T15:05:00;8.20;;;3.10;;
8139;SDS011;4111;50.972;7.072;2023-12-20T15:07:27;7.50;;;3.20;;
8139;SDS011;4111;50.972;7.072;2023-12-20T15:09:54;9.03;;;3.40;;
8139;SDS011;4111;50.972;7.072;2023-12-20T15:12:20;11.00;;;3.33;;
8139;SDS011;4111;50.972;7.072;2023-12-20T15:14:47;12.50;;;3.03;;